Wind From: 13-12-2017 10:08 Until: 14-12-2017 06:00 warning for: Wind Level: Yellow info button

Although rather usual in this region, locally or potentially dangerous phenomena are expected. (such as local winds, summer thunderstorms, rising streams or high waves) Be aware and pay attention to the latest weather updates, especially if you carry out activities exposed to weather or close to a stream or shoreline. 


Meteo18 Weather Cam more information Meteo18 Weather Cam


Thunder radar more information blitzortung!


Rain radar more information rain snow radar


Visit our other weather sites:

Template documentation
and downloads

And another site



Weather Underground History page Text

Daily Summary for March 8, 2017 Units:  Both    English   Metric
« Previous Day
Next Day »
Daily Weekly Monthly Yearly Custom
  High: Low: Average:
Temperature: 53.8 °F /  12.1 °C 37.6 °F /  3.1 °C 46.8 °F /  8.2 °C
Dew Point: 51.6 °F /  10.9 °C 36.1 °F /  2.3 °C 45.3 °F /  7.4 °C
Humidity: 98 % 90 % 95 %
Wind Speed: 17 mph /  27.4 km/h - 5.5 mph /  8.8 km/h
Wind Gust: 24 mph /  38.6 km/h - -
Wind:- - SW
Pressure: 30.3 in /  1024.9 hPa 30.2 in /  1021.9 hPa -
Precipitation: 0.06 in /  1.5 mm    
Historical Graphs
 
 
Tabular Data for March 8, 2017
Time Temperature Dew Point Pressure Wind Wind Speed Wind Gust Humidity Rainfall Rate (Hourly)
00:02 37.9 °F /  3.3 °C 36.3 °F /  2.4 °C 30.2 in /  1023.6 hPa Calm   1 mph /  1.6 km/h 94 % 0 in /  0.0 mm
00:07 37.8 °F /  3.2 °C 36.1 °F /  2.3 °C 30.2 in /  1023.2 hPa Calm     94 % 0 in /  0.0 mm
00:12 37.8 °F /  3.2 °C 36.1 °F /  2.3 °C 30.2 in /  1023.2 hPa Calm     94 % 0 in /  0.0 mm
00:17 37.8 °F /  3.2 °C 36.1 °F /  2.3 °C 30.2 in /  1023.6 hPa Calm     94 % 0 in /  0.0 mm
00:27 38.1 °F /  3.4 °C 36.9 °F /  2.7 °C 30.2 in /  1023.6 hPa Calm     95 % 0 in /  0.0 mm
00:32 37.9 °F /  3.3 °C 36.3 °F /  2.4 °C 30.2 in /  1023.9 hPa Calm     94 % 0 in /  0.0 mm
00:37 37.9 °F /  3.3 °C 36.7 °F /  2.6 °C 30.2 in /  1023.6 hPa Calm     95 % 0 in /  0.0 mm
00:42 37.8 °F /  3.2 °C 36.5 °F /  2.5 °C 30.2 in /  1023.9 hPa Calm     95 % 0 in /  0.0 mm
00:47 37.9 °F /  3.3 °C 36.7 °F /  2.6 °C 30.2 in /  1023.9 hPa Calm     95 % 0 in /  0.0 mm
00:52 37.9 °F /  3.3 °C 36.7 °F /  2.6 °C 30.3 in /  1024.3 hPa Calm     95 % 0 in /  0.0 mm
00:57 37.9 °F /  3.3 °C 36.7 °F /  2.6 °C 30.2 in /  1023.9 hPa Calm     95 % 0 in /  0.0 mm
01:02 38.1 °F /  3.4 °C 36.9 °F /  2.7 °C 30.2 in /  1023.9 hPa Calm     95 % 0 in /  0.0 mm
01:07 37.9 °F /  3.3 °C 36.7 °F /  2.6 °C 30.2 in /  1023.9 hPa Calm     95 % 0 in /  0.0 mm
01:12 37.9 °F /  3.3 °C 36.7 °F /  2.6 °C 30.2 in /  1023.6 hPa Calm     95 % 0 in /  0.0 mm
01:17 37.9 °F /  3.3 °C 36.7 °F /  2.6 °C 30.2 in /  1023.9 hPa Calm     95 % 0 in /  0.0 mm
01:22 38.1 °F /  3.4 °C 37 °F /  2.8 °C 30.2 in /  1023.9 hPa Calm     96 % 0 in /  0.0 mm
01:27 38.3 °F /  3.5 °C 37 °F /  2.8 °C 30.2 in /  1023.9 hPa Calm     95 % 0 in /  0.0 mm
01:32 38.1 °F /  3.4 °C 36.9 °F /  2.7 °C 30.3 in /  1024.3 hPa Calm     95 % 0 in /  0.0 mm
01:37 38.1 °F /  3.4 °C 36.9 °F /  2.7 °C 30.3 in /  1024.3 hPa Calm     95 % 0 in /  0.0 mm
01:42 37.9 °F /  3.3 °C 36.7 °F /  2.6 °C 30.3 in /  1024.3 hPa Calm     95 % 0 in /  0.0 mm
01:47 37.9 °F /  3.3 °C 36.7 °F /  2.6 °C 30.3 in /  1024.3 hPa Calm     95 % 0 in /  0.0 mm
01:52 37.9 °F /  3.3 °C 36.7 °F /  2.6 °C 30.3 in /  1024.3 hPa Calm     95 % 0 in /  0.0 mm
01:57 37.9 °F /  3.3 °C 36.7 °F /  2.6 °C 30.2 in /  1023.9 hPa Calm     95 % 0 in /  0.0 mm
02:02 37.9 °F /  3.3 °C 36.7 °F /  2.6 °C 30.2 in /  1023.9 hPa Calm     95 % 0 in /  0.0 mm
02:07 37.8 °F /  3.2 °C 36.5 °F /  2.5 °C 30.3 in /  1024.3 hPa Calm     95 % 0 in /  0.0 mm
02:12 37.8 °F /  3.2 °C 36.5 °F /  2.5 °C 30.2 in /  1023.9 hPa Calm     95 % 0 in /  0.0 mm
02:17 37.8 °F /  3.2 °C 36.5 °F /  2.5 °C 30.2 in /  1023.9 hPa Calm     95 % 0 in /  0.0 mm
02:22 37.8 °F /  3.2 °C 36.7 °F /  2.6 °C 30.2 in /  1023.9 hPa Calm     96 % 0 in /  0.0 mm
02:27 37.8 °F /  3.2 °C 36.7 °F /  2.6 °C 30.2 in /  1023.6 hPa Calm     96 % 0 in /  0.0 mm
02:32 37.8 °F /  3.2 °C 36.7 °F /  2.6 °C 30.2 in /  1023.6 hPa Calm     96 % 0 in /  0.0 mm
02:37 37.8 °F /  3.2 °C 36.7 °F /  2.6 °C 30.2 in /  1023.6 hPa Calm     96 % 0 in /  0.0 mm
02:42 37.8 °F /  3.2 °C 36.5 °F /  2.5 °C 30.2 in /  1023.6 hPa Calm     95 % 0 in /  0.0 mm
02:52 37.8 °F /  3.2 °C 36.7 °F /  2.6 °C 30.2 in /  1023.2 hPa Calm     96 % 0 in /  0.0 mm
02:57 37.8 °F /  3.2 °C 36.7 °F /  2.6 °C 30.2 in /  1023.2 hPa Calm     96 % 0 in /  0.0 mm
03:02 37.6 °F /  3.1 °C 36.5 °F /  2.5 °C 30.2 in /  1023.6 hPa Calm     96 % 0 in /  0.0 mm
03:07 37.6 °F /  3.1 °C 36.5 °F /  2.5 °C 30.2 in /  1023.2 hPa Calm     96 % 0 in /  0.0 mm
03:12 37.6 °F /  3.1 °C 36.5 °F /  2.5 °C 30.2 in /  1022.9 hPa Calm   2 mph /  3.2 km/h 96 % 0 in /  0.0 mm
03:17 37.6 °F /  3.1 °C 36.5 °F /  2.5 °C 30.2 in /  1022.9 hPa Calm   2 mph /  3.2 km/h 96 % 0 in /  0.0 mm
03:22 37.6 °F /  3.1 °C 36.5 °F /  2.5 °C 30.2 in /  1022.9 hPa Calm   1 mph /  1.6 km/h 96 % 0 in /  0.0 mm
03:27 37.6 °F /  3.1 °C 36.5 °F /  2.5 °C 30.2 in /  1023.2 hPa Calm     96 % 0 in /  0.0 mm
03:32 37.6 °F /  3.1 °C 36.5 °F /  2.5 °C 30.2 in /  1023.2 hPa Calm     96 % 0 in /  0.0 mm
03:37 37.6 °F /  3.1 °C 36.5 °F /  2.5 °C 30.2 in /  1023.2 hPa Calm     96 % 0 in /  0.0 mm
03:42 37.8 °F /  3.2 °C 36.7 °F /  2.6 °C 30.2 in /  1023.2 hPa Calm   2 mph /  3.2 km/h 96 % 0 in /  0.0 mm
03:47 37.9 °F /  3.3 °C 36.9 °F /  2.7 °C 30.2 in /  1022.9 hPa SSE 1 mph /  1.6 km/h 2 mph /  3.2 km/h 96 % 0 in /  0.0 mm
03:52 38.1 °F /  3.4 °C 37 °F /  2.8 °C 30.2 in /  1022.9 hPa Calm   3 mph /  4.8 km/h 96 % 0 in /  0.0 mm
03:57 38.1 °F /  3.4 °C 37 °F /  2.8 °C 30.2 in /  1022.6 hPa SSE 1 mph /  1.6 km/h 3 mph /  4.8 km/h 96 % 0 in /  0.0 mm
04:02 38.3 °F /  3.5 °C 37.2 °F /  2.9 °C 30.2 in /  1022.9 hPa Calm   3 mph /  4.8 km/h 96 % 0 in /  0.0 mm
04:07 38.3 °F /  3.5 °C 37.2 °F /  2.9 °C 30.2 in /  1022.9 hPa SSW 1 mph /  1.6 km/h 3 mph /  4.8 km/h 96 % 0 in /  0.0 mm
04:12 38.5 °F /  3.6 °C 37.4 °F /  3.0 °C 30.2 in /  1022.9 hPa SSW 2 mph /  3.2 km/h 3 mph /  4.8 km/h 96 % 0 in /  0.0 mm
04:17 38.5 °F /  3.6 °C 37.4 °F /  3.0 °C 30.2 in /  1022.9 hPa South 2 mph /  3.2 km/h 3 mph /  4.8 km/h 96 % 0 in /  0.0 mm
04:22 38.5 °F /  3.6 °C 37.2 °F /  2.9 °C 30.2 in /  1022.6 hPa SSW 3 mph /  4.8 km/h 4 mph /  6.4 km/h 95 % 0 in /  0.0 mm
04:27 38.7 °F /  3.7 °C 37.4 °F /  3.0 °C 30.2 in /  1022.6 hPa South 2 mph /  3.2 km/h 4 mph /  6.4 km/h 95 % 0 in /  0.0 mm
04:32 38.7 °F /  3.7 °C 37.4 °F /  3.0 °C 30.2 in /  1022.6 hPa SSE 2 mph /  3.2 km/h 4 mph /  6.4 km/h 95 % 0 in /  0.0 mm
04:37 38.7 °F /  3.7 °C 37.4 °F /  3.0 °C 30.2 in /  1022.6 hPa Calm   4 mph /  6.4 km/h 95 % 0 in /  0.0 mm
04:42 38.7 °F /  3.7 °C 37.4 °F /  3.0 °C 30.2 in /  1022.2 hPa South 2 mph /  3.2 km/h 4 mph /  6.4 km/h 95 % 0 in /  0.0 mm
04:47 38.8 °F /  3.8 °C 37.6 °F /  3.1 °C 30.2 in /  1022.2 hPa South 3 mph /  4.8 km/h 4 mph /  6.4 km/h 95 % 0 in /  0.0 mm
04:52 38.8 °F /  3.8 °C 37.6 °F /  3.1 °C 30.2 in /  1022.2 hPa South 1 mph /  1.6 km/h 5 mph /  8.0 km/h 95 % 0 in /  0.0 mm
04:57 38.8 °F /  3.8 °C 37.6 °F /  3.1 °C 30.2 in /  1022.2 hPa SSE 1 mph /  1.6 km/h 5 mph /  8.0 km/h 95 % 0 in /  0.0 mm
05:02 38.8 °F /  3.8 °C 37.6 °F /  3.1 °C 30.2 in /  1022.2 hPa SSE 1 mph /  1.6 km/h 5 mph /  8.0 km/h 95 % 0 in /  0.0 mm
05:07 39 °F /  3.9 °C 37.8 °F /  3.2 °C 30.2 in /  1022.2 hPa South 1 mph /  1.6 km/h 2 mph /  3.2 km/h 95 % 0 in /  0.0 mm
05:12 39 °F /  3.9 °C 37.8 °F /  3.2 °C 30.2 in /  1022.2 hPa Calm   3 mph /  4.8 km/h 95 % 0 in /  0.0 mm
05:17 39 °F /  3.9 °C 37.8 °F /  3.2 °C 30.2 in /  1022.2 hPa South 1 mph /  1.6 km/h 3 mph /  4.8 km/h 95 % 0 in /  0.0 mm
05:22 39 °F /  3.9 °C 37.8 °F /  3.2 °C 30.2 in /  1022.2 hPa SSE 1 mph /  1.6 km/h 2 mph /  3.2 km/h 95 % 0 in /  0.0 mm
05:27 39.2 °F /  4.0 °C 37.9 °F /  3.3 °C 30.2 in /  1022.2 hPa Calm   2 mph /  3.2 km/h 95 % 0 in /  0.0 mm
05:32 39.2 °F /  4.0 °C 37.9 °F /  3.3 °C 30.2 in /  1022.2 hPa Calm   2 mph /  3.2 km/h 95 % 0 in /  0.0 mm
05:37 39.4 °F /  4.1 °C 38.1 °F /  3.4 °C 30.2 in /  1022.2 hPa Calm   2 mph /  3.2 km/h 95 % 0 in /  0.0 mm
05:42 39.4 °F /  4.1 °C 38.1 °F /  3.4 °C 30.2 in /  1022.2 hPa Calm     95 % 0 in /  0.0 mm
05:52 39.6 °F /  4.2 °C 37.9 °F /  3.3 °C 30.2 in /  1022.2 hPa South 2 mph /  3.2 km/h 2 mph /  3.2 km/h 94 % 0 in /  0.0 mm
05:57 39.6 °F /  4.2 °C 37.9 °F /  3.3 °C 30.2 in /  1022.2 hPa Calm   2 mph /  3.2 km/h 94 % 0 in /  0.0 mm
06:02 39.7 °F /  4.3 °C 38.1 °F /  3.4 °C 30.2 in /  1022.2 hPa SE 1 mph /  1.6 km/h 2 mph /  3.2 km/h 94 % 0 in /  0.0 mm
06:07 39.7 °F /  4.3 °C 38.1 °F /  3.4 °C 30.2 in /  1022.2 hPa SSE 1 mph /  1.6 km/h 3 mph /  4.8 km/h 94 % 0 in /  0.0 mm
06:12 39.7 °F /  4.3 °C 38.1 °F /  3.4 °C 30.2 in /  1022.2 hPa SE 2 mph /  3.2 km/h 3 mph /  4.8 km/h 94 % 0 in /  0.0 mm
06:17 39.7 °F /  4.3 °C 38.1 °F /  3.4 °C 30.2 in /  1022.2 hPa SSE 1 mph /  1.6 km/h 3 mph /  4.8 km/h 94 % 0 in /  0.0 mm
06:27 39.7 °F /  4.3 °C 38.1 °F /  3.4 °C 30.2 in /  1022.2 hPa South 1 mph /  1.6 km/h 4 mph /  6.4 km/h 94 % 0.01 in /  0.3 mm
06:32 39.7 °F /  4.3 °C 38.1 °F /  3.4 °C 30.2 in /  1022.2 hPa SSW 1 mph /  1.6 km/h 4 mph /  6.4 km/h 94 % 0.01 in /  0.3 mm
06:42 39.9 °F /  4.4 °C 38.7 °F /  3.7 °C 30.2 in /  1022.2 hPa Calm   3 mph /  4.8 km/h 95 % 0.02 in /  0.5 mm
06:47 39.9 °F /  4.4 °C 38.7 °F /  3.7 °C 30.2 in /  1022.2 hPa South 1 mph /  1.6 km/h 3 mph /  4.8 km/h 95 % 0.02 in /  0.5 mm
06:52 39.9 °F /  4.4 °C 38.7 °F /  3.7 °C 30.2 in /  1022.2 hPa SSW 1 mph /  1.6 km/h 5 mph /  8.0 km/h 95 % 0.03 in /  0.8 mm
07:02 39.9 °F /  4.4 °C 38.7 °F /  3.7 °C 30.2 in /  1022.2 hPa South 2 mph /  3.2 km/h 5 mph /  8.0 km/h 95 % 0.03 in /  0.8 mm
07:12 39.9 °F /  4.4 °C 38.7 °F /  3.7 °C 30.2 in /  1021.9 hPa South 2 mph /  3.2 km/h 4 mph /  6.4 km/h 95 % 0.03 in /  0.8 mm
07:17 39.9 °F /  4.4 °C 38.8 °F /  3.8 °C 30.2 in /  1022.2 hPa SSE 2 mph /  3.2 km/h 4 mph /  6.4 km/h 96 % 0.02 in /  0.5 mm
07:22 39.9 °F /  4.4 °C 38.8 °F /  3.8 °C 30.2 in /  1022.2 hPa SSE 5 mph /  8.0 km/h 5 mph /  8.0 km/h 96 % 0.02 in /  0.5 mm
07:27 40.1 °F /  4.5 °C 39 °F /  3.9 °C 30.2 in /  1022.2 hPa South 1 mph /  1.6 km/h 6 mph /  9.7 km/h 96 % 0.03 in /  0.8 mm
07:32 40.3 °F /  4.6 °C 39.2 °F /  4.0 °C 30.2 in /  1022.2 hPa South 2 mph /  3.2 km/h 6 mph /  9.7 km/h 96 % 0.03 in /  0.8 mm
07:37 40.3 °F /  4.6 °C 39.2 °F /  4.0 °C 30.2 in /  1021.9 hPa SSE 2 mph /  3.2 km/h 6 mph /  9.7 km/h 96 % 0.02 in /  0.5 mm
07:42 40.3 °F /  4.6 °C 39.2 °F /  4.0 °C 30.2 in /  1022.2 hPa SSE 1 mph /  1.6 km/h 6 mph /  9.7 km/h 96 % 0.02 in /  0.5 mm
07:47 40.5 °F /  4.7 °C 39.4 °F /  4.1 °C 30.2 in /  1022.2 hPa SSE 1 mph /  1.6 km/h 4 mph /  6.4 km/h 96 % 0.01 in /  0.3 mm
07:52 40.6 °F /  4.8 °C 39.6 °F /  4.2 °C 30.2 in /  1021.9 hPa SE 2 mph /  3.2 km/h 4 mph /  6.4 km/h 96 % 0.01 in /  0.3 mm
07:57 40.6 °F /  4.8 °C 39.6 °F /  4.2 °C 30.2 in /  1021.9 hPa South 4 mph /  6.4 km/h 4 mph /  6.4 km/h 96 % 0.02 in /  0.5 mm
08:02 41.2 °F /  5.1 °C 40.5 °F /  4.7 °C 30.2 in /  1022.2 hPa SSE 2 mph /  3.2 km/h 4 mph /  6.4 km/h 97 % 0.02 in /  0.5 mm
08:07 41.4 °F /  5.2 °C 40.6 °F /  4.8 °C 30.2 in /  1022.2 hPa South 2 mph /  3.2 km/h 7 mph /  11.3 km/h 97 % 0.02 in /  0.5 mm
08:12 41.5 °F /  5.3 °C 40.8 °F /  4.9 °C 30.2 in /  1022.2 hPa SSE 3 mph /  4.8 km/h 7 mph /  11.3 km/h 97 % 0.02 in /  0.5 mm
08:17 41.5 °F /  5.3 °C 40.8 °F /  4.9 °C 30.2 in /  1022.2 hPa SSW 3 mph /  4.8 km/h 6 mph /  9.7 km/h 97 % 0.02 in /  0.5 mm
08:22 41.7 °F /  5.4 °C 41 °F /  5.0 °C 30.2 in /  1021.9 hPa SSE 3 mph /  4.8 km/h 6 mph /  9.7 km/h 97 % 0.02 in /  0.5 mm
08:27 41.9 °F /  5.5 °C 41.2 °F /  5.1 °C 30.2 in /  1021.9 hPa South 3 mph /  4.8 km/h 6 mph /  9.7 km/h 97 % 0.01 in /  0.3 mm
08:32 42.1 °F /  5.6 °C 41.4 °F /  5.2 °C 30.2 in /  1022.2 hPa SSW 3 mph /  4.8 km/h 6 mph /  9.7 km/h 97 % 0.01 in /  0.3 mm
08:37 42.3 °F /  5.7 °C 41.5 °F /  5.3 °C 30.2 in /  1022.2 hPa SSW 5 mph /  8.0 km/h 6 mph /  9.7 km/h 97 % 0.01 in /  0.3 mm
08:42 42.4 °F /  5.8 °C 41.7 °F /  5.4 °C 30.2 in /  1022.2 hPa South 3 mph /  4.8 km/h 6 mph /  9.7 km/h 97 % 0.01 in /  0.3 mm
08:47 42.6 °F /  5.9 °C 41.9 °F /  5.5 °C 30.2 in /  1022.2 hPa SSW 3 mph /  4.8 km/h 6 mph /  9.7 km/h 97 % 0.01 in /  0.3 mm
08:57 43 °F /  6.1 °C 42.3 °F /  5.7 °C 30.2 in /  1022.6 hPa Calm   5 mph /  8.0 km/h 97 % 0 in /  0.0 mm
09:02 43 °F /  6.1 °C 42.3 °F /  5.7 °C 30.2 in /  1022.6 hPa Calm   5 mph /  8.0 km/h 97 % 0 in /  0.0 mm
09:07 43.2 °F /  6.2 °C 42.4 °F /  5.8 °C 30.2 in /  1022.6 hPa SSW 2 mph /  3.2 km/h 2 mph /  3.2 km/h 97 % 0 in /  0.0 mm
09:12 43.5 °F /  6.4 °C 42.8 °F /  6.0 °C 30.2 in /  1022.6 hPa SW 5 mph /  8.0 km/h 5 mph /  8.0 km/h 97 % 0 in /  0.0 mm
09:17 43.9 °F /  6.6 °C 43.2 °F /  6.2 °C 30.2 in /  1022.6 hPa SSW 4 mph /  6.4 km/h 8 mph /  12.9 km/h 97 % 0 in /  0.0 mm
09:22 43.9 °F /  6.6 °C 43.2 °F /  6.2 °C 30.2 in /  1022.6 hPa SSW 4 mph /  6.4 km/h 8 mph /  12.9 km/h 97 % 0 in /  0.0 mm
09:27 44.1 °F /  6.7 °C 43.3 °F /  6.3 °C 30.2 in /  1022.6 hPa SSW 4 mph /  6.4 km/h 8 mph /  12.9 km/h 97 % 0.01 in /  0.3 mm
09:32 44.2 °F /  6.8 °C 43.5 °F /  6.4 °C 30.2 in /  1022.2 hPa SSW 5 mph /  8.0 km/h 8 mph /  12.9 km/h 97 % 0.01 in /  0.3 mm
09:37 44.4 °F /  6.9 °C 43.7 °F /  6.5 °C 30.2 in /  1022.2 hPa SSW 7 mph /  11.3 km/h 10 mph /  16.1 km/h 97 % 0.01 in /  0.3 mm
09:42 44.8 °F /  7.1 °C 44.1 °F /  6.7 °C 30.2 in /  1022.2 hPa SW 6 mph /  9.7 km/h 10 mph /  16.1 km/h 97 % 0.01 in /  0.3 mm
09:47 45 °F /  7.2 °C 44.2 °F /  6.8 °C 30.2 in /  1022.6 hPa SW 4 mph /  6.4 km/h 9 mph /  14.5 km/h 97 % 0.01 in /  0.3 mm
09:52 45.1 °F /  7.3 °C 44.4 °F /  6.9 °C 30.2 in /  1022.6 hPa SSW 8 mph /  12.9 km/h 9 mph /  14.5 km/h 97 % 0.01 in /  0.3 mm
09:57 45.3 °F /  7.4 °C 44.6 °F /  7.0 °C 30.2 in /  1022.6 hPa SSW 3 mph /  4.8 km/h 11 mph /  17.7 km/h 97 % 0.01 in /  0.3 mm
10:02 45.5 °F /  7.5 °C 44.8 °F /  7.1 °C 30.2 in /  1022.6 hPa SW 4 mph /  6.4 km/h 11 mph /  17.7 km/h 97 % 0.01 in /  0.3 mm
10:07 45.7 °F /  7.6 °C 45 °F /  7.2 °C 30.2 in /  1022.6 hPa SW 6 mph /  9.7 km/h 11 mph /  17.7 km/h 97 % 0.01 in /  0.3 mm
10:12 45.7 °F /  7.6 °C 45 °F /  7.2 °C 30.2 in /  1022.6 hPa SSW 4 mph /  6.4 km/h 9 mph /  14.5 km/h 97 % 0.01 in /  0.3 mm
10:17 46 °F /  7.8 °C 45.3 °F /  7.4 °C 30.2 in /  1022.2 hPa SW 4 mph /  6.4 km/h 9 mph /  14.5 km/h 97 % 0.01 in /  0.3 mm
10:22 46.2 °F /  7.9 °C 45.5 °F /  7.5 °C 30.2 in /  1022.2 hPa SW 5 mph /  8.0 km/h 10 mph /  16.1 km/h 97 % 0.01 in /  0.3 mm
10:27 46.6 °F /  8.1 °C 45.9 °F /  7.7 °C 30.2 in /  1022.2 hPa South 6 mph /  9.7 km/h 11 mph /  17.7 km/h 97 % 0 in /  0.0 mm
10:32 46.8 °F /  8.2 °C 46 °F /  7.8 °C 30.2 in /  1022.2 hPa SW 6 mph /  9.7 km/h 11 mph /  17.7 km/h 97 % 0 in /  0.0 mm
10:37 46.9 °F /  8.3 °C 46.2 °F /  7.9 °C 30.2 in /  1022.6 hPa SW 7 mph /  11.3 km/h 11 mph /  17.7 km/h 97 % 0 in /  0.0 mm
10:42 46.9 °F /  8.3 °C 46.2 °F /  7.9 °C 30.2 in /  1022.6 hPa SW 7 mph /  11.3 km/h 10 mph /  16.1 km/h 97 % 0 in /  0.0 mm
10:47 47.1 °F /  8.4 °C 46.4 °F /  8.0 °C 30.2 in /  1022.6 hPa SW 5 mph /  8.0 km/h 10 mph /  16.1 km/h 97 % 0 in /  0.0 mm
10:52 47.5 °F /  8.6 °C 46.8 °F /  8.2 °C 30.2 in /  1022.6 hPa SSW 5 mph /  8.0 km/h 8 mph /  12.9 km/h 97 % 0 in /  0.0 mm
10:57 47.7 °F /  8.7 °C 47.1 °F /  8.4 °C 30.2 in /  1022.6 hPa SSW 4 mph /  6.4 km/h 8 mph /  12.9 km/h 98 % 0 in /  0.0 mm
11:02 47.8 °F /  8.8 °C 47.3 °F /  8.5 °C 30.2 in /  1022.6 hPa SW 4 mph /  6.4 km/h 8 mph /  12.9 km/h 98 % 0 in /  0.0 mm
11:07 48 °F /  8.9 °C 47.5 °F /  8.6 °C 30.2 in /  1022.6 hPa SW 3 mph /  4.8 km/h 8 mph /  12.9 km/h 98 % 0 in /  0.0 mm
11:12 48.4 °F /  9.1 °C 47.8 °F /  8.8 °C 30.2 in /  1022.2 hPa SSW 4 mph /  6.4 km/h 8 mph /  12.9 km/h 98 % 0 in /  0.0 mm
11:17 48.6 °F /  9.2 °C 48 °F /  8.9 °C 30.2 in /  1022.6 hPa SW 2 mph /  3.2 km/h 8 mph /  12.9 km/h 98 % 0 in /  0.0 mm
11:22 48.7 °F /  9.3 °C 48.2 °F /  9.0 °C 30.2 in /  1022.6 hPa SW 2 mph /  3.2 km/h 8 mph /  12.9 km/h 98 % 0 in /  0.0 mm
11:27 48.9 °F /  9.4 °C 48.4 °F /  9.1 °C 30.2 in /  1022.9 hPa WSW 6 mph /  9.7 km/h 8 mph /  12.9 km/h 98 % 0 in /  0.0 mm
11:32 49.3 °F /  9.6 °C 48.7 °F /  9.3 °C 30.2 in /  1022.9 hPa WSW 8 mph /  12.9 km/h 10 mph /  16.1 km/h 98 % 0 in /  0.0 mm
11:37 49.6 °F /  9.8 °C 49.1 °F /  9.5 °C 30.2 in /  1022.9 hPa WNW 5 mph /  8.0 km/h 10 mph /  16.1 km/h 98 % 0 in /  0.0 mm
11:42 50.2 °F /  10.1 °C 49.6 °F /  9.8 °C 30.2 in /  1022.9 hPa SW 2 mph /  3.2 km/h 11 mph /  17.7 km/h 98 % 0 in /  0.0 mm
11:47 50.4 °F /  10.2 °C 49.8 °F /  9.9 °C 30.2 in /  1022.9 hPa West 10 mph /  16.1 km/h 13 mph /  20.9 km/h 98 % 0 in /  0.0 mm
11:52 50.7 °F /  10.4 °C 49.8 °F /  9.9 °C 30.2 in /  1022.9 hPa WSW 8 mph /  12.9 km/h 19 mph /  30.6 km/h 97 % 0 in /  0.0 mm
12:02 51.6 °F /  10.9 °C 50 °F /  10.0 °C 30.2 in /  1023.2 hPa West 10 mph /  16.1 km/h 16 mph /  25.7 km/h 94 % 0 in /  0.0 mm
12:07 52 °F /  11.1 °C 49.6 °F /  9.8 °C 30.2 in /  1023.2 hPa WNW 8 mph /  12.9 km/h 16 mph /  25.7 km/h 92 % 0 in /  0.0 mm
12:12 52.3 °F /  11.3 °C 50 °F /  10.0 °C 30.2 in /  1023.2 hPa West 6 mph /  9.7 km/h 13 mph /  20.9 km/h 92 % 0 in /  0.0 mm
12:17 52.3 °F /  11.3 °C 49.8 °F /  9.9 °C 30.2 in /  1023.2 hPa WSW 5 mph /  8.0 km/h 16 mph /  25.7 km/h 91 % 0 in /  0.0 mm
12:22 52.5 °F /  11.4 °C 50 °F /  10.0 °C 30.2 in /  1023.2 hPa SW 8 mph /  12.9 km/h 16 mph /  25.7 km/h 91 % 0 in /  0.0 mm
12:27 52.3 °F /  11.3 °C 49.8 °F /  9.9 °C 30.2 in /  1023.2 hPa WSW 8 mph /  12.9 km/h 16 mph /  25.7 km/h 91 % 0 in /  0.0 mm
12:32 52.2 °F /  11.2 °C 49.8 °F /  9.9 °C 30.2 in /  1023.2 hPa West 7 mph /  11.3 km/h 16 mph /  25.7 km/h 92 % 0 in /  0.0 mm
12:37 52 °F /  11.1 °C 50 °F /  10.0 °C 30.2 in /  1023.2 hPa West 8 mph /  12.9 km/h 17 mph /  27.4 km/h 93 % 0 in /  0.0 mm
12:42 51.6 °F /  10.9 °C 49.6 °F /  9.8 °C 30.2 in /  1023.2 hPa WSW 10 mph /  16.1 km/h 17 mph /  27.4 km/h 93 % 0 in /  0.0 mm
12:47 51.6 °F /  10.9 °C 50 °F /  10.0 °C 30.2 in /  1023.2 hPa SW 5 mph /  8.0 km/h 17 mph /  27.4 km/h 94 % 0 in /  0.0 mm
12:52 51.4 °F /  10.8 °C 49.8 °F /  9.9 °C 30.2 in /  1023.6 hPa WSW 10 mph /  16.1 km/h 17 mph /  27.4 km/h 94 % 0 in /  0.0 mm
12:57 51.4 °F /  10.8 °C 49.8 °F /  9.9 °C 30.2 in /  1023.6 hPa WSW 6 mph /  9.7 km/h 17 mph /  27.4 km/h 94 % 0 in /  0.0 mm
13:02 51.4 °F /  10.8 °C 49.8 °F /  9.9 °C 30.2 in /  1023.6 hPa West 9 mph /  14.5 km/h 16 mph /  25.7 km/h 94 % 0 in /  0.0 mm
13:07 51.4 °F /  10.8 °C 49.8 °F /  9.9 °C 30.2 in /  1023.6 hPa West 6 mph /  9.7 km/h 16 mph /  25.7 km/h 94 % 0 in /  0.0 mm
13:12 51.4 °F /  10.8 °C 49.8 °F /  9.9 °C 30.2 in /  1023.6 hPa WSW 4 mph /  6.4 km/h 14 mph /  22.5 km/h 94 % 0 in /  0.0 mm
13:17 51.4 °F /  10.8 °C 50 °F /  10.0 °C 30.2 in /  1023.6 hPa WSW 11 mph /  17.7 km/h 14 mph /  22.5 km/h 95 % 0 in /  0.0 mm
13:22 51.6 °F /  10.9 °C 50.2 °F /  10.1 °C 30.2 in /  1023.6 hPa West 10 mph /  16.1 km/h 13 mph /  20.9 km/h 95 % 0.01 in /  0.3 mm
13:27 51.6 °F /  10.9 °C 50.2 °F /  10.1 °C 30.2 in /  1023.2 hPa SW 4 mph /  6.4 km/h 13 mph /  20.9 km/h 95 % 0.01 in /  0.3 mm
13:32 51.6 °F /  10.9 °C 50.2 °F /  10.1 °C 30.2 in /  1023.2 hPa WSW 9 mph /  14.5 km/h 13 mph /  20.9 km/h 95 % 0.01 in /  0.3 mm
13:37 52 °F /  11.1 °C 50.5 °F /  10.3 °C 30.2 in /  1023.2 hPa West 8 mph /  12.9 km/h 13 mph /  20.9 km/h 95 % 0.01 in /  0.3 mm
13:42 52 °F /  11.1 °C 50.5 °F /  10.3 °C 30.2 in /  1023.2 hPa WSW 4 mph /  6.4 km/h 12 mph /  19.3 km/h 95 % 0.01 in /  0.3 mm
13:47 52.2 °F /  11.2 °C 50.7 °F /  10.4 °C 30.2 in /  1023.2 hPa WSW 8 mph /  12.9 km/h 14 mph /  22.5 km/h 95 % 0.01 in /  0.3 mm
13:52 52.3 °F /  11.3 °C 50.7 °F /  10.4 °C 30.2 in /  1023.2 hPa WSW 9 mph /  14.5 km/h 14 mph /  22.5 km/h 94 % 0.01 in /  0.3 mm
13:57 52.3 °F /  11.3 °C 50.7 °F /  10.4 °C 30.2 in /  1023.2 hPa West 4 mph /  6.4 km/h 15 mph /  24.1 km/h 94 % 0.01 in /  0.3 mm
14:02 52.3 °F /  11.3 °C 50.7 °F /  10.4 °C 30.2 in /  1022.9 hPa WSW 5 mph /  8.0 km/h 15 mph /  24.1 km/h 94 % 0.01 in /  0.3 mm
14:07 52.3 °F /  11.3 °C 50.7 °F /  10.4 °C 30.2 in /  1022.9 hPa WSW 10 mph /  16.1 km/h 15 mph /  24.1 km/h 94 % 0.01 in /  0.3 mm
14:12 52.3 °F /  11.3 °C 50.7 °F /  10.4 °C 30.2 in /  1022.9 hPa WSW 8 mph /  12.9 km/h 13 mph /  20.9 km/h 94 % 0.01 in /  0.3 mm
14:17 52.3 °F /  11.3 °C 50.7 °F /  10.4 °C 30.2 in /  1022.9 hPa SSW 4 mph /  6.4 km/h 15 mph /  24.1 km/h 94 % 0.01 in /  0.3 mm
14:22 52.3 °F /  11.3 °C 50.7 °F /  10.4 °C 30.2 in /  1022.9 hPa West 8 mph /  12.9 km/h 15 mph /  24.1 km/h 94 % 0 in /  0.0 mm
14:27 52.3 °F /  11.3 °C 50.7 °F /  10.4 °C 30.2 in /  1022.9 hPa SSW 7 mph /  11.3 km/h 15 mph /  24.1 km/h 94 % 0 in /  0.0 mm
14:32 52.5 °F /  11.4 °C 50.9 °F /  10.5 °C 30.2 in /  1022.6 hPa SW 12 mph /  19.3 km/h 15 mph /  24.1 km/h 94 % 0 in /  0.0 mm
14:37 52.9 °F /  11.6 °C 50.9 °F /  10.5 °C 30.2 in /  1022.9 hPa SW 5 mph /  8.0 km/h 14 mph /  22.5 km/h 93 % 0 in /  0.0 mm
14:42 53.1 °F /  11.7 °C 51.1 °F /  10.6 °C 30.2 in /  1022.9 hPa SW 9 mph /  14.5 km/h 16 mph /  25.7 km/h 93 % 0 in /  0.0 mm
14:52 53.2 °F /  11.8 °C 50.9 °F /  10.5 °C 30.2 in /  1022.9 hPa West 8 mph /  12.9 km/h 17 mph /  27.4 km/h 92 % 0 in /  0.0 mm
14:57 53.2 °F /  11.8 °C 50.7 °F /  10.4 °C 30.2 in /  1022.9 hPa WSW 13 mph /  20.9 km/h 17 mph /  27.4 km/h 91 % 0 in /  0.0 mm
15:02 53.2 °F /  11.8 °C 50.7 °F /  10.4 °C 30.2 in /  1022.9 hPa SW 8 mph /  12.9 km/h 18 mph /  29.0 km/h 91 % 0 in /  0.0 mm
15:07 53.2 °F /  11.8 °C 50.7 °F /  10.4 °C 30.2 in /  1022.6 hPa SW 6 mph /  9.7 km/h 19 mph /  30.6 km/h 91 % 0 in /  0.0 mm
15:12 53.2 °F /  11.8 °C 50.7 °F /  10.4 °C 30.2 in /  1022.9 hPa WSW 7 mph /  11.3 km/h 19 mph /  30.6 km/h 91 % 0 in /  0.0 mm
15:17 53.4 °F /  11.9 °C 50.9 °F /  10.5 °C 30.2 in /  1022.9 hPa WSW 6 mph /  9.7 km/h 19 mph /  30.6 km/h 91 % 0 in /  0.0 mm
15:22 53.4 °F /  11.9 °C 50.9 °F /  10.5 °C 30.2 in /  1022.9 hPa WSW 9 mph /  14.5 km/h 20 mph /  32.2 km/h 91 % 0 in /  0.0 mm
15:27 53.6 °F /  12.0 °C 51.1 °F /  10.6 °C 30.2 in /  1022.6 hPa West 9 mph /  14.5 km/h 20 mph /  32.2 km/h 91 % 0 in /  0.0 mm
15:32 53.6 °F /  12.0 °C 51.1 °F /  10.6 °C 30.2 in /  1022.9 hPa WSW 12 mph /  19.3 km/h 20 mph /  32.2 km/h 91 % 0 in /  0.0 mm
15:37 53.8 °F /  12.1 °C 51.3 °F /  10.7 °C 30.2 in /  1022.9 hPa West 8 mph /  12.9 km/h 19 mph /  30.6 km/h 91 % 0 in /  0.0 mm
15:42 53.8 °F /  12.1 °C 51.3 °F /  10.7 °C 30.2 in /  1022.9 hPa WSW 7 mph /  11.3 km/h 19 mph /  30.6 km/h 91 % 0 in /  0.0 mm
15:47 53.8 °F /  12.1 °C 50.9 °F /  10.5 °C 30.2 in /  1022.9 hPa West 7 mph /  11.3 km/h 18 mph /  29.0 km/h 90 % 0 in /  0.0 mm
15:52 53.8 °F /  12.1 °C 51.3 °F /  10.7 °C 30.2 in /  1022.9 hPa West 10 mph /  16.1 km/h 21 mph /  33.8 km/h 91 % 0 in /  0.0 mm
15:57 53.8 °F /  12.1 °C 51.3 °F /  10.7 °C 30.2 in /  1022.9 hPa WSW 14 mph /  22.5 km/h 22 mph /  35.4 km/h 91 % 0 in /  0.0 mm
16:02 53.8 °F /  12.1 °C 51.3 °F /  10.7 °C 30.2 in /  1022.9 hPa West 10 mph /  16.1 km/h 22 mph /  35.4 km/h 91 % 0 in /  0.0 mm
16:07 53.8 °F /  12.1 °C 51.3 °F /  10.7 °C 30.2 in /  1023.2 hPa West 10 mph /  16.1 km/h 22 mph /  35.4 km/h 91 % 0 in /  0.0 mm
16:12 53.6 °F /  12.0 °C 51.3 °F /  10.7 °C 30.2 in /  1022.9 hPa West 5 mph /  8.0 km/h 19 mph /  30.6 km/h 92 % 0 in /  0.0 mm
16:17 53.4 °F /  11.9 °C 51.1 °F /  10.6 °C 30.2 in /  1022.6 hPa WSW 9 mph /  14.5 km/h 18 mph /  29.0 km/h 92 % 0 in /  0.0 mm
16:22 53.4 °F /  11.9 °C 51.1 °F /  10.6 °C 30.2 in /  1022.6 hPa SW 12 mph /  19.3 km/h 18 mph /  29.0 km/h 92 % 0 in /  0.0 mm
16:27 53.4 °F /  11.9 °C 51.1 °F /  10.6 °C 30.2 in /  1022.9 hPa WSW 8 mph /  12.9 km/h 18 mph /  29.0 km/h 92 % 0 in /  0.0 mm
16:32 53.4 °F /  11.9 °C 51.1 °F /  10.6 °C 30.2 in /  1022.9 hPa WSW 8 mph /  12.9 km/h 18 mph /  29.0 km/h 92 % 0 in /  0.0 mm
16:37 53.4 °F /  11.9 °C 51.4 °F /  10.8 °C 30.2 in /  1022.9 hPa WSW 14 mph /  22.5 km/h 22 mph /  35.4 km/h 93 % 0 in /  0.0 mm
16:42 53.4 °F /  11.9 °C 51.4 °F /  10.8 °C 30.2 in /  1023.2 hPa WSW 12 mph /  19.3 km/h 22 mph /  35.4 km/h 93 % 0 in /  0.0 mm
16:47 53.4 °F /  11.9 °C 51.1 °F /  10.6 °C 30.2 in /  1023.2 hPa West 14 mph /  22.5 km/h 22 mph /  35.4 km/h 92 % 0 in /  0.0 mm
16:52 53.4 °F /  11.9 °C 51.4 °F /  10.8 °C 30.2 in /  1023.2 hPa WSW 4 mph /  6.4 km/h 21 mph /  33.8 km/h 93 % 0 in /  0.0 mm
16:57 53.4 °F /  11.9 °C 51.4 °F /  10.8 °C 30.2 in /  1022.9 hPa WSW 11 mph /  17.7 km/h 21 mph /  33.8 km/h 93 % 0 in /  0.0 mm
17:02 53.2 °F /  11.8 °C 51.3 °F /  10.7 °C 30.2 in /  1023.2 hPa SW 6 mph /  9.7 km/h 21 mph /  33.8 km/h 93 % 0 in /  0.0 mm
17:07 53.2 °F /  11.8 °C 51.6 °F /  10.9 °C 30.2 in /  1023.2 hPa West 8 mph /  12.9 km/h 21 mph /  33.8 km/h 94 % 0 in /  0.0 mm
17:17 53.2 °F /  11.8 °C 51.6 °F /  10.9 °C 30.2 in /  1023.2 hPa SW 6 mph /  9.7 km/h 19 mph /  30.6 km/h 94 % 0 in /  0.0 mm
17:22 53.2 °F /  11.8 °C 51.6 °F /  10.9 °C 30.2 in /  1023.2 hPa SW 6 mph /  9.7 km/h 19 mph /  30.6 km/h 94 % 0 in /  0.0 mm
17:27 53.2 °F /  11.8 °C 51.6 °F /  10.9 °C 30.2 in /  1023.6 hPa West 11 mph /  17.7 km/h 19 mph /  30.6 km/h 94 % 0 in /  0.0 mm
17:32 53.1 °F /  11.7 °C 51.4 °F /  10.8 °C 30.2 in /  1023.6 hPa West 7 mph /  11.3 km/h 19 mph /  30.6 km/h 94 % 0 in /  0.0 mm
17:37 53.1 °F /  11.7 °C 51.6 °F /  10.9 °C 30.2 in /  1023.6 hPa WSW 12 mph /  19.3 km/h 17 mph /  27.4 km/h 95 % 0 in /  0.0 mm
17:42 53.1 °F /  11.7 °C 51.4 °F /  10.8 °C 30.2 in /  1023.6 hPa WSW 12 mph /  19.3 km/h 20 mph /  32.2 km/h 94 % 0 in /  0.0 mm
17:47 53.1 °F /  11.7 °C 51.4 °F /  10.8 °C 30.2 in /  1023.6 hPa WSW 10 mph /  16.1 km/h 20 mph /  32.2 km/h 94 % 0 in /  0.0 mm
17:52 53.1 °F /  11.7 °C 51.6 °F /  10.9 °C 30.2 in /  1023.6 hPa WSW 13 mph /  20.9 km/h 20 mph /  32.2 km/h 95 % 0 in /  0.0 mm
17:57 52.9 °F /  11.6 °C 51.4 °F /  10.8 °C 30.2 in /  1023.6 hPa WNW 3 mph /  4.8 km/h 18 mph /  29.0 km/h 95 % 0 in /  0.0 mm
18:02 52.9 °F /  11.6 °C 51.4 °F /  10.8 °C 30.2 in /  1023.6 hPa West 11 mph /  17.7 km/h 18 mph /  29.0 km/h 95 % 0 in /  0.0 mm
18:07 52.9 °F /  11.6 °C 51.4 °F /  10.8 °C 30.2 in /  1023.6 hPa WSW 9 mph /  14.5 km/h 19 mph /  30.6 km/h 95 % 0 in /  0.0 mm
18:12 52.9 °F /  11.6 °C 51.4 °F /  10.8 °C 30.2 in /  1023.6 hPa West 5 mph /  8.0 km/h 19 mph /  30.6 km/h 95 % 0 in /  0.0 mm
18:17 52.9 °F /  11.6 °C 51.4 °F /  10.8 °C 30.2 in /  1023.6 hPa West 10 mph /  16.1 km/h 14 mph /  22.5 km/h 95 % 0 in /  0.0 mm
18:27 52.9 °F /  11.6 °C 51.4 °F /  10.8 °C 30.2 in /  1023.9 hPa West 5 mph /  8.0 km/h 16 mph /  25.7 km/h 95 % 0 in /  0.0 mm
18:32 52.9 °F /  11.6 °C 51.4 °F /  10.8 °C 30.2 in /  1023.9 hPa WSW 14 mph /  22.5 km/h 16 mph /  25.7 km/h 95 % 0 in /  0.0 mm
18:37 52.9 °F /  11.6 °C 51.4 °F /  10.8 °C 30.2 in /  1023.9 hPa WSW 5 mph /  8.0 km/h 16 mph /  25.7 km/h 95 % 0 in /  0.0 mm
18:42 52.9 °F /  11.6 °C 51.4 °F /  10.8 °C 30.2 in /  1023.9 hPa WSW 6 mph /  9.7 km/h 16 mph /  25.7 km/h 95 % 0 in /  0.0 mm
18:47 52.9 °F /  11.6 °C 51.4 °F /  10.8 °C 30.2 in /  1023.6 hPa SW 8 mph /  12.9 km/h 21 mph /  33.8 km/h 95 % 0 in /  0.0 mm
18:52 52.9 °F /  11.6 °C 51.4 °F /  10.8 °C 30.2 in /  1023.6 hPa WSW 9 mph /  14.5 km/h 21 mph /  33.8 km/h 95 % 0 in /  0.0 mm
18:57 52.9 °F /  11.6 °C 51.4 °F /  10.8 °C 30.2 in /  1023.9 hPa WSW 8 mph /  12.9 km/h 21 mph /  33.8 km/h 95 % 0 in /  0.0 mm
19:02 52.9 °F /  11.6 °C 51.4 °F /  10.8 °C 30.2 in /  1023.6 hPa WSW 12 mph /  19.3 km/h 18 mph /  29.0 km/h 95 % 0 in /  0.0 mm
19:07 52.9 °F /  11.6 °C 51.4 °F /  10.8 °C 30.2 in /  1023.9 hPa West 12 mph /  19.3 km/h 17 mph /  27.4 km/h 95 % 0 in /  0.0 mm
19:12 53.1 °F /  11.7 °C 51.4 °F /  10.8 °C 30.2 in /  1023.9 hPa WNW 6 mph /  9.7 km/h 19 mph /  30.6 km/h 94 % 0 in /  0.0 mm
19:17 53.1 °F /  11.7 °C 51.4 °F /  10.8 °C 30.2 in /  1023.9 hPa WSW 7 mph /  11.3 km/h 19 mph /  30.6 km/h 94 % 0 in /  0.0 mm
19:22 53.1 °F /  11.7 °C 51.4 °F /  10.8 °C 30.2 in /  1023.9 hPa West 16 mph /  25.7 km/h 17 mph /  27.4 km/h 94 % 0 in /  0.0 mm
19:27 53.1 °F /  11.7 °C 51.4 °F /  10.8 °C 30.3 in /  1024.3 hPa West 11 mph /  17.7 km/h 18 mph /  29.0 km/h 94 % 0 in /  0.0 mm
19:32 53.1 °F /  11.7 °C 51.4 °F /  10.8 °C 30.3 in /  1024.3 hPa WSW 11 mph /  17.7 km/h 18 mph /  29.0 km/h 94 % 0 in /  0.0 mm
19:37 53.1 °F /  11.7 °C 51.1 °F /  10.6 °C 30.3 in /  1024.3 hPa West 9 mph /  14.5 km/h 18 mph /  29.0 km/h 93 % 0 in /  0.0 mm
19:42 53.2 °F /  11.8 °C 51.3 °F /  10.7 °C 30.3 in /  1024.3 hPa WSW 8 mph /  12.9 km/h 22 mph /  35.4 km/h 93 % 0 in /  0.0 mm
19:47 53.1 °F /  11.7 °C 51.1 °F /  10.6 °C 30.3 in /  1024.3 hPa West 6 mph /  9.7 km/h 22 mph /  35.4 km/h 93 % 0 in /  0.0 mm
19:52 53.1 °F /  11.7 °C 51.1 °F /  10.6 °C 30.3 in /  1024.3 hPa West 10 mph /  16.1 km/h 22 mph /  35.4 km/h 93 % 0 in /  0.0 mm
19:57 53.2 °F /  11.8 °C 51.3 °F /  10.7 °C 30.3 in /  1024.3 hPa West 10 mph /  16.1 km/h 18 mph /  29.0 km/h 93 % 0 in /  0.0 mm
20:02 53.2 °F /  11.8 °C 51.3 °F /  10.7 °C 30.3 in /  1024.3 hPa West 11 mph /  17.7 km/h 24 mph /  38.6 km/h 93 % 0 in /  0.0 mm
20:07 53.2 °F /  11.8 °C 51.3 °F /  10.7 °C 30.3 in /  1024.3 hPa West 5 mph /  8.0 km/h 24 mph /  38.6 km/h 93 % 0 in /  0.0 mm
20:12 53.2 °F /  11.8 °C 50.9 °F /  10.5 °C 30.3 in /  1024.3 hPa WSW 12 mph /  19.3 km/h 19 mph /  30.6 km/h 92 % 0 in /  0.0 mm
20:17 53.2 °F /  11.8 °C 50.9 °F /  10.5 °C 30.3 in /  1024.3 hPa WSW 11 mph /  17.7 km/h 22 mph /  35.4 km/h 92 % 0 in /  0.0 mm
20:22 53.2 °F /  11.8 °C 50.9 °F /  10.5 °C 30.3 in /  1024.3 hPa WSW 16 mph /  25.7 km/h 22 mph /  35.4 km/h 92 % 0 in /  0.0 mm
20:27 53.2 °F /  11.8 °C 50.9 °F /  10.5 °C 30.3 in /  1024.3 hPa WSW 9 mph /  14.5 km/h 22 mph /  35.4 km/h 92 % 0 in /  0.0 mm
20:37 52.9 °F /  11.6 °C 51.3 °F /  10.7 °C 30.3 in /  1024.6 hPa West 6 mph /  9.7 km/h 18 mph /  29.0 km/h 94 % 0 in /  0.0 mm
20:42 52.5 °F /  11.4 °C 50.9 °F /  10.5 °C 30.3 in /  1024.6 hPa WSW 15 mph /  24.1 km/h 17 mph /  27.4 km/h 94 % 0 in /  0.0 mm
20:47 52.5 °F /  11.4 °C 50.9 °F /  10.5 °C 30.3 in /  1024.6 hPa WSW 13 mph /  20.9 km/h 18 mph /  29.0 km/h 94 % 0 in /  0.0 mm
20:57 52.5 °F /  11.4 °C 50.9 °F /  10.5 °C 30.3 in /  1024.6 hPa SW 10 mph /  16.1 km/h 20 mph /  32.2 km/h 94 % 0 in /  0.0 mm
21:02 52.3 °F /  11.3 °C 50.7 °F /  10.4 °C 30.3 in /  1024.9 hPa West 7 mph /  11.3 km/h 20 mph /  32.2 km/h 94 % 0 in /  0.0 mm
21:07 52.3 °F /  11.3 °C 50.7 °F /  10.4 °C 30.3 in /  1024.9 hPa SW 11 mph /  17.7 km/h 20 mph /  32.2 km/h 94 % 0 in /  0.0 mm
21:17 52.3 °F /  11.3 °C 50.4 °F /  10.2 °C 30.3 in /  1024.9 hPa WSW 17 mph /  27.4 km/h 21 mph /  33.8 km/h 93 % 0 in /  0.0 mm
21:22 52.3 °F /  11.3 °C 50.4 °F /  10.2 °C 30.3 in /  1024.9 hPa SW 10 mph /  16.1 km/h 21 mph /  33.8 km/h 93 % 0 in /  0.0 mm
21:27 52.2 °F /  11.2 °C 50.5 °F /  10.3 °C 30.3 in /  1024.9 hPa WSW 9 mph /  14.5 km/h 21 mph /  33.8 km/h 94 % 0 in /  0.0 mm
21:37 52.2 °F /  11.2 °C 50.5 °F /  10.3 °C 30.3 in /  1024.6 hPa WSW 10 mph /  16.1 km/h 16 mph /  25.7 km/h 94 % 0 in /  0.0 mm
21:42 52 °F /  11.1 °C 50.4 °F /  10.2 °C 30.3 in /  1024.6 hPa SSW 8 mph /  12.9 km/h 15 mph /  24.1 km/h 94 % 0 in /  0.0 mm
21:47 52.2 °F /  11.2 °C 50.5 °F /  10.3 °C 30.3 in /  1024.6 hPa SW 5 mph /  8.0 km/h 15 mph /  24.1 km/h 94 % 0 in /  0.0 mm
21:52 52 °F /  11.1 °C 50.4 °F /  10.2 °C 30.3 in /  1024.6 hPa West 3 mph /  4.8 km/h 14 mph /  22.5 km/h 94 % 0 in /  0.0 mm
21:57 52.2 °F /  11.2 °C 50.5 °F /  10.3 °C 30.3 in /  1024.9 hPa SSW 9 mph /  14.5 km/h 14 mph /  22.5 km/h 94 % 0 in /  0.0 mm
22:02 52.2 °F /  11.2 °C 50.5 °F /  10.3 °C 30.3 in /  1024.9 hPa WSW 8 mph /  12.9 km/h 15 mph /  24.1 km/h 94 % 0 in /  0.0 mm
22:07 52 °F /  11.1 °C 50.4 °F /  10.2 °C 30.3 in /  1024.9 hPa West 9 mph /  14.5 km/h 15 mph /  24.1 km/h 94 % 0 in /  0.0 mm
22:12 52 °F /  11.1 °C 50.4 °F /  10.2 °C 30.3 in /  1024.9 hPa WSW 12 mph /  19.3 km/h 17 mph /  27.4 km/h 94 % 0 in /  0.0 mm
22:17 52 °F /  11.1 °C 50.4 °F /  10.2 °C 30.3 in /  1024.9 hPa SW 10 mph /  16.1 km/h 17 mph /  27.4 km/h 94 % 0 in /  0.0 mm
22:22 51.8 °F /  11.0 °C 50.2 °F /  10.1 °C 30.3 in /  1024.9 hPa West 12 mph /  19.3 km/h 17 mph /  27.4 km/h 94 % 0 in /  0.0 mm
22:27 51.8 °F /  11.0 °C 50.2 °F /  10.1 °C 30.3 in /  1024.9 hPa West 11 mph /  17.7 km/h 17 mph /  27.4 km/h 94 % 0 in /  0.0 mm
22:32 51.6 °F /  10.9 °C 50 °F /  10.0 °C 30.3 in /  1024.9 hPa WSW 13 mph /  20.9 km/h 16 mph /  25.7 km/h 94 % 0 in /  0.0 mm
22:37 51.8 °F /  11.0 °C 50.2 °F /  10.1 °C 30.3 in /  1024.9 hPa SW 13 mph /  20.9 km/h 16 mph /  25.7 km/h 94 % 0 in /  0.0 mm
22:42 51.8 °F /  11.0 °C 50.2 °F /  10.1 °C 30.3 in /  1024.9 hPa SW 12 mph /  19.3 km/h 20 mph /  32.2 km/h 94 % 0 in /  0.0 mm
22:47 51.6 °F /  10.9 °C 50 °F /  10.0 °C 30.3 in /  1024.9 hPa WSW 8 mph /  12.9 km/h 20 mph /  32.2 km/h 94 % 0 in /  0.0 mm
22:52 51.6 °F /  10.9 °C 50 °F /  10.0 °C 30.3 in /  1024.6 hPa WSW 7 mph /  11.3 km/h 20 mph /  32.2 km/h 94 % 0 in /  0.0 mm
22:57 51.6 °F /  10.9 °C 50 °F /  10.0 °C 30.3 in /  1024.6 hPa SSW 8 mph /  12.9 km/h 18 mph /  29.0 km/h 94 % 0 in /  0.0 mm
23:02 51.6 °F /  10.9 °C 50 °F /  10.0 °C 30.3 in /  1024.9 hPa WSW 11 mph /  17.7 km/h 20 mph /  32.2 km/h 94 % 0 in /  0.0 mm
23:07 51.4 °F /  10.8 °C 49.8 °F /  9.9 °C 30.3 in /  1024.9 hPa SW 11 mph /  17.7 km/h 20 mph /  32.2 km/h 94 % 0 in /  0.0 mm
23:12 51.6 °F /  10.9 °C 50 °F /  10.0 °C 30.3 in /  1024.9 hPa West 11 mph /  17.7 km/h 20 mph /  32.2 km/h 94 % 0 in /  0.0 mm
23:17 51.6 °F /  10.9 °C 50 °F /  10.0 °C 30.3 in /  1024.9 hPa West 11 mph /  17.7 km/h 20 mph /  32.2 km/h 94 % 0 in /  0.0 mm
23:22 51.4 °F /  10.8 °C 49.8 °F /  9.9 °C 30.3 in /  1024.9 hPa WSW 11 mph /  17.7 km/h 17 mph /  27.4 km/h 94 % 0 in /  0.0 mm
23:27 51.4 °F /  10.8 °C 49.8 °F /  9.9 °C 30.3 in /  1024.9 hPa WSW 13 mph /  20.9 km/h 17 mph /  27.4 km/h 94 % 0 in /  0.0 mm
23:32 51.4 °F /  10.8 °C 49.8 °F /  9.9 °C 30.3 in /  1024.9 hPa WSW 12 mph /  19.3 km/h 17 mph /  27.4 km/h 94 % 0 in /  0.0 mm
23:37 51.4 °F /  10.8 °C 49.8 °F /  9.9 °C 30.3 in /  1024.9 hPa West 9 mph /  14.5 km/h 16 mph /  25.7 km/h 94 % 0 in /  0.0 mm
23:42 51.4 °F /  10.8 °C 49.8 °F /  9.9 °C 30.3 in /  1024.9 hPa WSW 9 mph /  14.5 km/h 19 mph /  30.6 km/h 94 % 0 in /  0.0 mm
23:47 51.3 °F /  10.7 °C 49.6 °F /  9.8 °C 30.3 in /  1024.6 hPa WSW 7 mph /  11.3 km/h 19 mph /  30.6 km/h 94 % 0 in /  0.0 mm
23:52 51.3 °F /  10.7 °C 49.6 °F /  9.8 °C 30.3 in /  1024.6 hPa WSW 4 mph /  6.4 km/h 18 mph /  29.0 km/h 94 % 0 in /  0.0 mm
23:57 51.3 °F /  10.7 °C 49.6 °F /  9.8 °C 30.3 in /  1024.6 hPa SW 10 mph /  16.1 km/h 18 mph /  29.0 km/h 94 % 0 in /  0.0 mm
Meteo18
Compliments of Weather Underground - 4 mb

Script developed by  Jim McMurry - jmcmurry@mwt.net Adapted for the template by  Wim van der Kuil - Leuven-Template.eu

You find our weather info also at:

European Weather Network

Weather Underground

Equipment we use:

Weather-station
Davis Vue

Weather-program
Meteohub

Weather-server
Raspberry PI 2 B+

Provider
1 and 1

Davis Vue

Meteohub

Raspberry PI 2 B+

1 and 1